Time;durP1;ratioP1;P1;durP2;ratioP2;P2;SDS_P1;SDS_P2;PMS_P1;PMS_P2;Temp;Humidity;BMP_temperature;BMP_pressure;BME280_temperature;BME280_humidity;BME280_pressure;Samples;Min_cycle;Max_cycle;Signal;HPM_P1;HPM_P2
2022/07/31 07:58:51;;;;;;;11.88;10.23;;;;;;;20.00;80.53;101486.22;5335360;27;20403;-76
2022/07/31 08:01:25;;;;;;;11.77;10.57;;;;;;;20.12;79.72;101491.94;5320627;28;20027;-75
2022/07/31 08:03:56;;;;;;;11.73;10.38;;;;;;;20.19;79.65;101483.78;5315521;28;20526;-74
2022/07/31 08:06:27;;;;;;;10.73;9.73;;;;;;;20.19;79.87;101481.78;5306104;28;20123;-77
2022/07/31 08:08:58;;;;;;;10.75;9.65;;;;;;;20.28;79.63;101480.94;5314116;28;20024;-77
2022/07/31 08:11:30;;;;;;;11.65;9.05;;;;;;;20.31;79.42;101483.88;5320718;28;20053;-75
2022/07/31 08:14:01;;;;;;;12.07;9.43;;;;;;;20.37;78.61;101484.50;5320280;28;20020;-75
2022/07/31 08:16:32;;;;;;;10.57;9.57;;;;;;;20.44;78.93;101483.97;5314425;28;20059;-76
2022/07/31 08:19:04;;;;;;;11.63;9.85;;;;;;;20.45;78.36;101474.34;5311579;28;20028;-76
2022/07/31 08:21:36;;;;;;;10.38;9.38;;;;;;;20.58;78.43;101473.28;5314937;28;20028;-76
2022/07/31 08:24:09;;;;;;;10.60;9.32;;;;;;;20.55;78.49;101480.44;5315731;28;20039;-75
2022/07/31 08:29:31;;;;;;;10.93;9.82;;;;;;;20.75;78.06;101477.97;5321749;28;20471;-76
2022/07/31 08:32:02;;;;;;;9.60;8.70;;;;;;;20.89;78.03;101477.69;5312675;28;20016;-75
2022/07/31 08:34:34;;;;;;;10.77;9.40;;;;;;;20.95;76.93;101474.31;5319781;28;20092;-76
2022/07/31 08:37:06;;;;;;;10.35;9.23;;;;;;;20.91;77.42;101472.53;5321168;28;20028;-75
2022/07/31 08:39:37;;;;;;;10.75;8.70;;;;;;;20.99;77.40;101477.28;5320664;28;20028;-76
2022/07/31 08:42:12;;;;;;;10.02;9.13;;;;;;;20.96;77.62;101478.81;5315845;28;20114;-75
2022/07/31 08:44:44;;;;;;;11.00;8.67;;;;;;;20.93;77.50;101478.66;5320490;28;20104;-77
2022/07/31 08:47:16;;;;;;;10.93;9.00;;;;;;;20.88;77.40;101476.88;5318869;28;20031;-77
2022/07/31 08:49:48;;;;;;;10.02;9.02;;;;;;;20.91;77.27;101479.00;5309115;28;20077;-76
2022/07/31 08:52:31;;;;;;;9.90;8.98;;;;;;;20.85;78.14;101486.84;5321463;28;20099;-76
2022/07/31 08:55:06;;;;;;;13.38;8.55;;;;;;;20.91;78.16;101481.00;5319227;28;20043;-77
2022/07/31 08:57:38;;;;;;;8.40;7.47;;;;;;;21.00;77.61;101490.22;5312094;28;20063;-77
2022/07/31 09:00:16;;;;;;;9.50;8.02;;;;;;;20.99;77.74;101488.56;5321351;28;20300;-77
2022/07/31 09:02:48;;;;;;;8.82;8.00;;;;;;;21.03;77.08;101489.50;5320555;28;20028;-77
2022/07/31 09:05:23;;;;;;;8.55;7.75;;;;;;;21.03;76.97;101493.16;5309493;28;20032;-77
2022/07/31 09:07:55;;;;;;;8.60;7.75;;;;;;;21.02;77.15;101476.59;5318966;28;20027;-76
2022/07/31 09:17:18;;;;;;;;;;;;;;;;;;;;;
2022/07/31 09:19:55;;;;;;;7.90;7.07;;;;;;;21.25;76.93;101474.22;5077900;29;20055;-77
2022/07/31 09:22:30;;;;;;;7.85;7.10;;;;;;;21.42;76.30;101467.59;5070853;29;20171;-78
2022/07/31 09:25:15;;;;;;;8.43;7.60;;;;;;;21.52;76.34;101467.13;5080797;29;20076;-76
2022/07/31 09:27:50;;;;;;;8.70;7.35;;;;;;;21.55;75.66;101468.44;5124196;28;20035;-75
2022/07/31 09:30:24;;;;;;;9.60;7.70;;;;;;;21.58;75.82;101464.94;5216366;28;20022;-75
2022/07/31 09:32:56;;;;;;;7.93;7.22;;;;;;;21.57;75.72;101463.28;5222769;28;20030;-76
2022/07/31 09:35:30;;;;;;;7.85;6.95;;;;;;;21.54;75.56;101478.09;5218089;28;20454;-75
2022/07/31 09:38:02;;;;;;;8.70;7.55;;;;;;;21.65;75.62;101474.47;5221672;28;20457;-76
2022/07/31 09:40:36;;;;;;;7.53;6.82;;;;;;;21.69;75.40;101468.94;5223047;28;20033;-78
2022/07/31 09:43:23;;;;;;;7.95;7.18;;;;;;;21.82;74.74;101475.44;5207918;28;20050;-75
2022/07/31 09:46:01;;;;;;;8.55;7.72;;;;;;;21.89;74.05;101467.22;5218121;28;20360;-78
2022/07/31 09:48:34;;;;;;;7.85;7.13;;;;;;;22.05;73.80;101459.66;5214947;28;20125;-76
2022/07/31 09:51:08;;;;;;;8.48;7.03;;;;;;;22.08;73.22;101464.59;5221659;28;20032;-77
2022/07/31 09:53:45;;;;;;;7.82;7.10;;;;;;;22.15;73.35;101461.19;5219852;28;20061;-75
2022/07/31 09:56:29;;;;;;;9.00;7.40;;;;;;;22.17;73.60;101463.69;5209295;28;20026;-78
2022/07/31 09:59:05;;;;;;;9.98;7.25;;;;;;;22.15;73.42;101459.19;5217831;28;20026;-76
2022/07/31 10:01:37;;;;;;;10.23;7.72;;;;;;;22.30;72.81;101451.22;5216868;28;20112;-75
2022/07/31 10:04:09;;;;;;;7.18;6.50;;;;;;;22.25;72.34;101455.09;5221707;28;20030;-76
2022/07/31 10:06:41;;;;;;;7.22;6.63;;;;;;;22.23;72.08;101448.97;5211397;28;20030;-76
2022/07/31 10:09:15;;;;;;;8.65;6.15;;;;;;;22.27;72.02;101454.75;5216191;28;20034;-77
2022/07/31 10:11:49;;;;;;;10.35;8.15;;;;;;;22.35;72.26;101451.78;5220980;28;20037;-76
2022/07/31 10:14:29;;;;;;;12.95;9.93;;;;;;;22.37;71.94;101457.09;5226119;28;20500;-75
2022/07/31 10:17:03;;;;;;;6.40;5.35;;;;;;;22.44;71.83;101450.84;5208382;28;20390;-77
2022/07/31 10:19:36;;;;;;;7.68;5.93;;;;;;;22.46;71.98;101463.44;5217256;28;20049;-76
2022/07/31 10:22:13;;;;;;;5.97;5.05;;;;;;;22.48;71.27;101446.94;5219219;28;20584;-76
2022/07/31 10:24:51;;;;;;;7.57;5.45;;;;;;;22.44;71.20;101451.66;5221229;28;20195;-76
2022/07/31 10:27:22;;;;;;;6.93;4.78;;;;;;;22.45;71.18;101452.50;5205378;28;20113;-74
2022/07/31 10:29:58;;;;;;;6.00;4.78;;;;;;;22.46;71.31;101443.66;5221195;28;20113;-75
2022/07/31 10:32:30;;;;;;;4.90;4.40;;;;;;;22.51;70.52;101445.41;5209489;28;20018;-75
2022/07/31 10:35:05;;;;;;;6.78;4.65;;;;;;;22.57;70.69;101433.50;5208752;28;20022;-75
2022/07/31 10:37:53;;;;;;;6.03;4.70;;;;;;;22.73;70.61;101442.06;5217656;28;20026;-75
2022/07/31 10:40:31;;;;;;;6.75;4.43;;;;;;;22.81;69.58;101442.28;5208093;28;20026;-75
2022/07/31 10:43:16;;;;;;;6.97;4.63;;;;;;;22.85;69.16;101441.16;5221728;28;20022;-75
2022/07/31 10:45:51;;;;;;;;;;;;;;;22.98;68.76;101434.34;5205749;28;20021;-75
2022/07/31 10:48:22;;;;;;;6.80;5.40;;;;;;;22.84;69.12;101431.06;5212401;28;19918;-75
2022/07/31 10:51:21;;;;;;;4.95;4.35;;;;;;;22.89;69.22;101444.13;5205694;28;20045;-76
2022/07/31 10:53:59;;;;;;;5.05;4.07;;;;;;;22.82;69.44;101427.75;5218488;28;20095;-76
2022/07/31 10:56:42;;;;;;;6.25;4.47;;;;;;;22.86;69.41;101425.88;5221081;28;20026;-75
2022/07/31 10:59:27;;;;;;;7.03;4.40;;;;;;;22.83;69.46;101422.91;5216409;28;20022;-77
2022/07/31 11:01:58;;;;;;;5.80;4.13;;;;;;;22.79;69.22;101420.00;5204939;28;20036;-76
2022/07/31 11:04:31;;;;;;;8.60;4.03;;;;;;;22.92;69.09;101421.59;5221370;28;20276;-75
2022/07/31 11:07:13;;;;;;;4.95;4.45;;;;;;;22.99;68.70;101416.16;5220242;28;20104;-80
2022/07/31 11:09:45;;;;;;;5.60;4.55;;;;;;;22.99;69.01;101421.81;5220629;28;20061;-80
2022/07/31 11:12:20;;;;;;;4.47;3.65;;;;;;;23.03;68.81;101416.25;5221269;28;20092;-80
2022/07/31 11:14:52;;;;;;;6.30;4.28;;;;;;;23.11;68.58;101412.47;5220400;28;20072;-76
2022/07/31 11:17:31;;;;;;;7.45;3.70;;;;;;;23.27;68.38;101414.50;5220644;28;20057;-76
2022/07/31 11:20:03;;;;;;;4.78;4.20;;;;;;;23.40;67.99;101413.25;5204871;28;20031;-73
2022/07/31 11:22:35;;;;;;;5.93;3.90;;;;;;;23.50;67.59;101406.22;5218953;28;20393;-74
2022/07/31 11:25:11;;;;;;;4.18;3.75;;;;;;;23.44;67.39;101403.66;5214667;28;20037;-74
2022/07/31 11:27:43;;;;;;;4.45;3.58;;;;;;;23.39;67.52;101395.44;5219528;28;20052;-76
2022/07/31 11:30:14;;;;;;;4.55;4.13;;;;;;;23.47;67.12;101401.25;5213135;28;20097;-75
2022/07/31 11:32:48;;;;;;;3.80;3.35;;;;;;;23.55;66.63;101394.63;5211147;28;20104;-75
2022/07/31 11:35:25;;;;;;;7.28;3.90;;;;;;;23.76;66.36;101398.00;5205223;28;20018;-75
2022/07/31 11:38:00;;;;;;;4.78;3.40;;;;;;;23.91;64.70;101401.22;5213632;28;20033;-76
2022/07/31 11:40:32;;;;;;;6.30;3.92;;;;;;;23.90;64.65;101391.88;5218854;28;20470;-74
2022/07/31 11:43:06;;;;;;;5.18;3.80;;;;;;;23.92;64.77;101394.34;5218188;28;20030;-76
2022/07/31 11:45:50;;;;;;;6.35;3.50;;;;;;;24.01;65.17;101387.28;5206479;28;20110;-74
2022/07/31 11:48:23;;;;;;;3.58;3.28;;;;;;;23.99;64.99;101384.00;5206790;28;20477;-75
2022/07/31 11:50:54;;;;;;;4.38;3.90;;;;;;;24.00;65.23;101388.47;5218841;28;20092;-79
2022/07/31 11:53:26;;;;;;;7.50;3.50;;;;;;;24.06;65.09;101391.84;5220553;28;20033;-77
2022/07/31 11:55:59;;;;;;;5.38;3.70;;;;;;;24.13;64.51;101383.50;5220746;28;20018;-76
2022/07/31 11:58:32;;;;;;;4.30;3.90;;;;;;;24.14;63.49;101390.81;5219113;28;20040;-74
2022/07/31 12:01:04;;;;;;;4.65;3.85;;;;;;;24.24;62.77;101383.78;5207199;28;20466;-75
2022/07/31 12:03:36;;;;;;;6.03;4.05;;;;;;;24.30;62.65;101388.75;5215487;28;20114;-76
2022/07/31 12:06:09;;;;;;;4.22;3.80;;;;;;;24.22;62.53;101392.63;5209617;28;20105;-75
2022/07/31 12:08:40;;;;;;;5.65;4.40;;;;;;;24.19;62.69;101396.22;5220336;28;20034;-75
2022/07/31 12:11:17;;;;;;;5.13;4.53;;;;;;;24.25;62.83;101386.22;5205219;28;20073;-77
2022/07/31 12:13:49;;;;;;;6.55;4.13;;;;;;;24.26;62.80;101393.53;5220439;28;20548;-76
2022/07/31 12:16:21;;;;;;;4.15;3.78;;;;;;;24.30;63.05;101385.09;5213056;28;20027;-78
2022/07/31 12:19:00;;;;;;;4.55;4.07;;;;;;;24.30;62.56;101376.59;5213226;28;20046;-76
2022/07/31 12:21:37;;;;;;;5.70;4.28;;;;;;;24.50;61.61;101392.47;5219557;28;20380;-77
2022/07/31 12:24:11;;;;;;;4.80;4.40;;;;;;;24.52;61.25;101389.28;5216854;28;20022;-75
2022/07/31 12:26:49;;;;;;;5.28;4.75;;;;;;;24.53;61.80;101388.06;5218797;28;20393;-77
2022/07/31 12:29:38;;;;;;;4.80;4.20;;;;;;;24.41;62.21;101389.00;5220940;28;20381;-78
2022/07/31 12:32:10;;;;;;;5.63;4.70;;;;;;;24.26;62.24;101387.88;5218227;28;20021;-77
2022/07/31 12:34:42;;;;;;;6.68;4.57;;;;;;;24.23;62.78;101394.25;5209865;28;20381;-76
2022/07/31 12:37:18;;;;;;;4.97;3.80;;;;;;;24.23;62.89;101382.91;5215171;28;20040;-78
2022/07/31 12:39:52;;;;;;;8.88;4.57;;;;;;;24.18;63.01;101373.91;5215902;28;20031;-74
2022/07/31 12:42:32;;;;;;;5.33;4.10;;;;;;;24.23;63.02;101376.44;5219060;28;20097;-78
2022/07/31 12:45:05;;;;;;;4.90;4.32;;;;;;;24.38;62.70;101378.41;5211100;28;20026;-80
2022/07/31 12:47:36;;;;;;;5.38;3.97;;;;;;;24.46;61.88;101368.06;5223715;28;20545;-79
2022/07/31 12:50:10;;;;;;;6.05;4.15;;;;;;;24.66;61.14;101364.03;5224091;28;20105;-79
2022/07/31 12:52:45;;;;;;;5.75;4.00;;;;;;;24.88;60.30;101355.97;5229270;28;20022;-79
2022/07/31 12:55:16;;;;;;;6.85;4.05;;;;;;;25.04;59.89;101356.69;5215723;28;20026;-79
2022/07/31 12:57:48;;;;;;;5.78;3.50;;;;;;;24.89;59.59;101360.44;5222484;28;20491;-78
2022/07/31 13:00:21;;;;;;;6.07;4.03;;;;;;;24.74;60.15;101350.81;5222670;28;20463;-78
2022/07/31 13:02:55;;;;;;;7.82;4.00;;;;;;;24.67;60.68;101356.34;5223874;28;20072;-78
2022/07/31 13:05:28;;;;;;;7.03;4.13;;;;;;;24.54;61.20;101364.19;5223341;28;20030;-79
2022/07/31 13:07:59;;;;;;;6.85;4.07;;;;;;;24.52;60.98;101358.09;5218157;28;20017;-79
2022/07/31 13:10:31;;;;;;;4.90;4.32;;;;;;;24.47;61.41;101358.38;5217425;28;20029;-76
2022/07/31 13:13:02;;;;;;;4.90;4.40;;;;;;;24.42;61.33;101359.47;5209995;28;20049;-77
2022/07/31 13:15:33;;;;;;;6.47;3.90;;;;;;;24.43;61.31;101354.63;5218846;28;20493;-77
2022/07/31 13:18:05;;;;;;;6.47;3.88;;;;;;;24.42;61.58;101350.16;5207895;28;20105;-77
2022/07/31 13:20:36;;;;;;;7.05;5.18;;;;;;;24.56;61.62;101346.81;5230130;28;20025;-78
2022/07/31 13:23:10;;;;;;;6.63;4.50;;;;;;;24.68;61.04;101352.34;5228714;28;20057;-78
2022/07/31 13:25:41;;;;;;;6.03;4.43;;;;;;;24.73;59.96;101346.38;5223012;28;20065;-79
2022/07/31 13:28:12;;;;;;;5.25;4.03;;;;;;;24.84;59.94;101346.56;5222410;28;20046;-78
2022/07/31 13:30:44;;;;;;;8.68;3.83;;;;;;;24.91;59.71;101349.53;5223086;28;20025;-79
2022/07/31 13:33:15;;;;;;;5.78;4.28;;;;;;;24.91;59.36;101343.88;5208513;28;20026;-79
2022/07/31 13:35:46;;;;;;;6.30;3.80;;;;;;;24.80;59.85;101338.00;5218246;28;20053;-77
2022/07/31 13:38:18;;;;;;;8.35;4.00;;;;;;;24.77;60.26;101337.91;5219391;28;20026;-76
2022/07/31 13:43:41;;;;;;;9.10;3.53;;;;;;;24.63;60.35;101333.59;5221061;28;20030;-77
2022/07/31 13:46:12;;;;;;;9.85;3.67;;;;;;;24.60;61.01;101333.53;5222061;28;20033;-78
2022/07/31 13:48:44;;;;;;;5.18;3.47;;;;;;;24.64;61.10;101332.41;5222595;28;20041;-77
2022/07/31 13:51:15;;;;;;;6.53;5.53;;;;;;;24.78;60.55;101331.06;5220946;28;20513;-78
2022/07/31 13:53:50;;;;;;;6.45;3.30;;;;;;;24.80;60.58;101326.66;5204962;28;20469;-77
2022/07/31 13:56:22;;;;;;;6.30;3.08;;;;;;;24.78;60.25;101326.19;5213548;28;20018;-77
2022/07/31 13:58:54;;;;;;;6.13;3.30;;;;;;;24.67;60.32;101331.66;5208731;28;20092;-77
2022/07/31 14:01:28;;;;;;;5.50;2.97;;;;;;;24.76;60.57;101324.94;5218393;28;20389;-79
2022/07/31 14:03:59;;;;;;;3.35;2.50;;;;;;;24.84;59.86;101324.69;5206513;28;20046;-78
2022/07/31 14:06:36;;;;;;;5.50;3.10;;;;;;;24.79;59.73;101318.50;5213192;28;20058;-78
2022/07/31 14:09:10;;;;;;;5.13;3.10;;;;;;;24.84;60.30;101326.72;5214007;28;20022;-74
2022/07/31 14:11:44;;;;;;;4.45;2.92;;;;;;;24.79;60.70;101318.50;5212459;28;20088;-76
2022/07/31 14:14:16;;;;;;;4.85;2.80;;;;;;;24.70;60.55;101313.91;5214307;28;20433;-75
2022/07/31 14:16:47;;;;;;;8.93;3.40;;;;;;;24.62;60.99;101309.28;5214924;28;20087;-76
2022/07/31 14:19:19;;;;;;;3.03;2.40;;;;;;;24.62;61.14;101306.44;5205658;28;20026;-76
2022/07/31 14:21:51;;;;;;;7.40;2.50;;;;;;;24.55;61.28;101311.97;5218036;28;20015;-75
2022/07/31 14:24:22;;;;;;;5.75;2.85;;;;;;;24.53;60.95;101305.84;5208535;28;20014;-76
2022/07/31 14:26:54;;;;;;;4.30;2.47;;;;;;;24.54;60.83;101296.13;5209778;28;20465;-76
2022/07/31 14:29:31;;;;;;;5.53;2.90;;;;;;;24.63;60.54;101291.06;5222390;28;20148;-76
2022/07/31 14:32:02;;;;;;;4.25;2.47;;;;;;;24.76;59.59;101305.09;5221086;28;20034;-78
2022/07/31 14:34:34;;;;;;;6.38;2.67;;;;;;;24.77;59.20;101290.50;5212232;28;20473;-77
2022/07/31 14:37:05;;;;;;;4.70;2.65;;;;;;;24.85;59.59;101289.47;5220208;28;20030;-77
2022/07/31 14:39:37;;;;;;;3.78;2.17;;;;;;;24.81;59.95;101293.44;5204578;28;20031;-77
2022/07/31 14:42:12;;;;;;;5.13;2.25;;;;;;;24.83;60.43;101296.72;5209032;28;20479;-77
2022/07/31 14:44:46;;;;;;;2.58;1.98;;;;;;;24.80;60.39;101289.78;5214548;28;20018;-77
2022/07/31 14:47:17;;;;;;;4.90;2.22;;;;;;;24.78;60.48;101288.53;5222422;28;20037;-76
2022/07/31 14:49:49;;;;;;;3.65;2.38;;;;;;;24.67;60.63;101288.28;5206785;28;20018;-77
2022/07/31 14:52:20;;;;;;;2.63;1.95;;;;;;;24.61;60.88;101289.81;5213651;28;20115;-76
2022/07/31 14:54:51;;;;;;;3.10;2.30;;;;;;;24.55;61.30;101297.81;5212605;28;20033;-77
2022/07/31 14:57:23;;;;;;;4.25;1.70;;;;;;;24.57;61.40;101301.09;5205631;28;20033;-76
2022/07/31 14:59:57;;;;;;;3.20;2.00;;;;;;;24.51;62.06;101302.56;5216584;28;20064;-75
2022/07/31 15:02:28;;;;;;;6.47;2.30;;;;;;;24.50;62.00;101296.09;5210538;28;20029;-76
2022/07/31 15:05:09;;;;;;;3.45;1.88;;;;;;;24.38;62.26;101298.22;5229413;28;20021;-76
2022/07/31 15:07:40;;;;;;;4.45;2.55;;;;;;;24.31;64.47;101318.72;5222160;28;20026;-76
2022/07/31 15:10:12;;;;;;;6.03;2.70;;;;;;;24.13;66.28;101324.00;5218072;28;20067;-76
2022/07/31 15:12:43;;;;;;;13.18;12.00;;;;;;;24.28;67.15;101325.13;5220885;28;20068;-75
2022/07/31 15:15:17;;;;;;;5.20;2.67;;;;;;;24.33;67.15;101324.84;5206555;28;20393;-71
2022/07/31 15:17:49;;;;;;;5.45;4.95;;;;;;;24.28;66.73;101322.31;5217994;28;20393;-71
2022/07/31 15:20:20;;;;;;;3.83;2.30;;;;;;;24.22;68.40;101313.28;5216858;28;20033;-72
2022/07/31 15:22:51;;;;;;;4.63;3.25;;;;;;;24.11;68.66;101311.41;5215088;28;20041;-71
2022/07/31 15:25:23;;;;;;;4.28;3.58;;;;;;;24.09;69.64;101314.63;5221166;28;20065;-72
2022/07/31 15:27:57;;;;;;;5.15;3.60;;;;;;;24.00;69.93;101311.97;5204049;28;20095;-72
2022/07/31 15:30:28;;;;;;;5.38;3.70;;;;;;;23.68;71.66;101307.59;5211971;28;20029;-72
2022/07/31 15:32:59;;;;;;;5.55;4.18;;;;;;;23.70;75.16;101319.34;5213476;28;20469;-77
2022/07/31 15:35:33;;;;;;;10.15;6.07;;;;;;;23.60;80.01;101329.25;5204063;28;20030;-77
2022/07/31 15:38:04;;;;;;;10.30;5.47;;;;;;;23.27;82.63;101324.78;5221626;28;20025;-77
2022/07/31 15:40:36;;;;;;;18.70;16.70;;;;;;;23.43;85.54;101317.09;5210883;28;20069;-77
2022/07/31 15:43:07;;;;;;;14.30;13.10;;;;;;;23.43;86.32;101324.75;5213402;28;20026;-78
2022/07/31 15:45:44;;;;;;;13.75;12.40;;;;;;;23.55;86.86;101319.00;5208862;28;20057;-77
2022/07/31 15:48:16;;;;;;;9.68;7.25;;;;;;;23.48;86.33;101324.50;5213639;28;20034;-78
2022/07/31 15:50:47;;;;;;;19.70;17.85;;;;;;;23.45;86.36;101322.41;5210611;28;20037;-77
2022/07/31 15:53:18;;;;;;;8.30;6.88;;;;;;;23.40;84.88;101317.84;5213293;28;20018;-78
2022/07/31 15:55:52;;;;;;;7.65;7.00;;;;;;;23.50;85.26;101315.66;5206472;28;20102;-78
2022/07/31 15:58:23;;;;;;;11.00;9.90;;;;;;;23.37;84.58;101324.22;5213034;28;20025;-78
2022/07/31 16:00:58;;;;;;;14.95;13.48;;;;;;;23.37;83.66;101329.88;5212539;28;20026;-78
2022/07/31 16:03:29;;;;;;;58.00;52.63;;;;;;;23.50;84.32;101326.97;5203768;28;20516;-78
2022/07/31 16:06:02;;;;;;;7.75;7.03;;;;;;;23.26;85.10;101325.94;5215794;28;20015;-78
2022/07/31 16:08:36;;;;;;;6.80;6.15;;;;;;;23.30;84.63;101323.22;5218244;28;20060;-78
2022/07/31 16:11:10;;;;;;;7.75;6.30;;;;;;;23.35;85.18;101320.94;5219955;28;20113;-78
2022/07/31 16:13:41;;;;;;;6.80;5.53;;;;;;;23.34;83.55;101319.31;5217786;28;20124;-78
2022/07/31 16:16:13;;;;;;;6.20;5.32;;;;;;;23.22;82.18;101327.88;5206889;28;20112;-78
2022/07/31 16:18:44;;;;;;;5.85;4.90;;;;;;;23.26;82.68;101328.78;5209834;28;20034;-78
2022/07/31 16:21:15;;;;;;;5.82;4.75;;;;;;;23.37;82.12;101323.41;5219166;28;20030;-78
2022/07/31 16:23:52;;;;;;;6.13;4.88;;;;;;;23.42;82.58;101331.63;5224855;28;20389;-77
2022/07/31 16:26:23;;;;;;;5.53;4.68;;;;;;;23.38;82.13;101320.19;5224596;28;20038;-79
2022/07/31 16:28:55;;;;;;;4.95;4.13;;;;;;;23.41;81.52;101321.47;5241421;28;20033;-78
2022/07/31 16:31:26;;;;;;;5.88;4.88;;;;;;;23.28;80.61;101326.41;5227931;28;20392;-76
2022/07/31 16:33:58;;;;;;;4.18;3.22;;;;;;;23.29;78.42;101322.41;5209241;28;20017;-77
2022/07/31 16:36:29;;;;;;;4.20;3.47;;;;;;;23.23;76.55;101323.84;5216066;28;20084;-77
2022/07/31 16:39:00;;;;;;;6.50;3.33;;;;;;;23.19;75.17;101322.94;5216293;28;20449;-77
2022/07/31 16:41:31;;;;;;;4.25;3.67;;;;;;;23.11;75.25;101319.13;5208765;28;20470;-77
2022/07/31 16:44:04;;;;;;;4.75;3.53;;;;;;;23.20;75.56;101313.28;5226190;28;20025;-76
2022/07/31 16:46:38;;;;;;;4.68;3.58;;;;;;;23.18;76.08;101310.78;5223784;28;20474;-77
2022/07/31 16:49:09;;;;;;;4.85;3.45;;;;;;;23.18;75.50;101315.63;5224713;28;20029;-76
2022/07/31 16:51:46;;;;;;;4.65;3.40;;;;;;;23.26;75.27;101314.63;5208549;28;20093;-76
2022/07/31 16:54:17;;;;;;;6.88;2.67;;;;;;;23.21;74.81;101317.72;5224464;28;20033;-76
2022/07/31 16:56:51;;;;;;;2.75;2.55;;;;;;;23.16;75.03;101324.50;5229812;28;20025;-76
2022/07/31 16:59:22;;;;;;;5.07;3.13;;;;;;;23.22;76.01;101325.06;5239168;28;20485;-77
2022/07/31 17:01:53;;;;;;;7.10;3.75;;;;;;;23.08;77.14;101330.31;5237539;28;20073;-77
2022/07/31 17:04:25;;;;;;;5.03;3.70;;;;;;;23.02;76.63;101328.97;5239371;28;20491;-74
2022/07/31 17:06:56;;;;;;;4.95;3.17;;;;;;;22.96;76.69;101332.03;5230637;28;20117;-77
2022/07/31 17:09:29;;;;;;;5.88;3.60;;;;;;;22.83;77.38;101327.63;5230251;28;20064;-76
2022/07/31 17:12:00;;;;;;;5.90;3.53;;;;;;;22.55;79.08;101339.75;5230053;28;20078;-77
2022/07/31 17:14:32;;;;;;;5.93;4.10;;;;;;;22.48;79.71;101345.22;5230826;28;20098;-78
2022/07/31 17:17:06;;;;;;;5.40;4.40;;;;;;;22.20;82.38;101352.84;5232101;28;20152;-77
2022/07/31 17:19:37;;;;;;;6.25;4.35;;;;;;;22.13;84.23;101357.03;5233549;28;20041;-77
2022/07/31 17:22:09;;;;;;;5.57;4.18;;;;;;;21.89;85.80;101345.81;5229301;28;20033;-77
2022/07/31 17:24:43;;;;;;;7.70;4.95;;;;;;;21.66;88.67;101337.00;5227266;28;20116;-78
2022/07/31 17:27:18;;;;;;;9.05;5.03;;;;;;;21.57;90.16;101356.84;5221588;28;20084;-78
2022/07/31 17:29:49;;;;;;;10.75;5.55;;;;;;;21.72;88.80;101344.03;5210646;28;20061;-78
